Time;durP1;ratioP1;P1;durP2;ratioP2;P2;SDS_P1;SDS_P2;PMS_P1;PMS_P2;Temp;Humidity;BMP_temperature;BMP_pressure;BME280_temperature;BME280_humidity;BME280_pressure;Samples;Min_cycle;Max_cycle;Signal;HPM_P1;HPM_P2
2021/12/18 00:02:40;;;;;;;12.30;4.30;;;2.80;99.90;;;;;;8303370;28;20190;-83
2021/12/18 00:06:41;;;;;;;10.60;3.70;;;2.90;99.90;;;;;;8301489;28;20189;-83
2021/12/18 00:10:45;;;;;;;7.77;3.70;;;2.90;99.90;;;;;;8302241;28;20223;-83
2021/12/18 00:14:45;;;;;;;9.57;4.00;;;2.90;99.90;;;;;;8303128;28;20233;-83
2021/12/18 00:18:49;;;;;;;7.90;3.93;;;2.90;99.90;;;;;;8303668;28;20183;-82
2021/12/18 00:22:50;;;;;;;11.47;4.77;;;2.90;99.90;;;;;;8306100;28;20191;-82
2021/12/18 00:26:54;;;;;;;14.17;4.23;;;2.90;99.90;;;;;;8301766;28;20197;-81
2021/12/18 00:30:55;;;;;;;9.07;4.23;;;2.90;99.90;;;;;;8311643;28;20317;-82
2021/12/18 00:34:57;;;;;;;9.33;4.37;;;3.00;99.90;;;;;;8312680;28;20217;-82
2021/12/18 00:38:58;;;;;;;11.70;4.63;;;2.90;99.90;;;;;;8307642;28;20193;-82
2021/12/18 00:47:00;;;;;;;11.47;4.63;;;3.00;99.90;;;;;;8332951;28;20277;-83
2021/12/18 00:51:01;;;;;;;7.87;4.70;;;3.00;99.90;;;;;;8309031;28;20217;-83
2021/12/18 00:55:02;;;;;;;7.83;4.60;;;3.00;99.90;;;;;;8312499;28;20243;-83
2021/12/18 00:59:04;;;;;;;9.13;5.00;;;3.00;99.90;;;;;;8330403;28;20178;-83
2021/12/18 01:03:07;;;;;;;11.10;5.40;;;3.10;99.90;;;;;;8315110;28;20190;-83
2021/12/18 01:07:08;;;;;;;15.83;7.43;;;3.00;99.90;;;;;;8314542;28;20201;-81
2021/12/18 01:23:56;;;;;;;6.43;3.63;;;3.00;99.90;;;;;;8320327;28;20193;-83
2021/12/18 01:27:56;;;;;;;8.33;4.10;;;3.00;99.90;;;;;;8306554;28;20190;-83
2021/12/18 01:31:57;;;;;;;8.37;4.37;;;3.00;99.90;;;;;;8332923;28;20247;-81
2021/12/18 01:36:01;;;;;;;7.17;4.47;;;3.10;99.90;;;;;;8316745;28;20242;-82
2021/12/18 01:40:03;;;;;;;13.53;5.10;;;3.10;99.90;;;;;;8313151;28;20202;-82
2021/12/18 01:44:50;;;;;;;9.97;4.20;;;3.10;99.90;;;;;;8307118;28;20238;-84
2021/12/18 01:53:03;;;;;;;11.90;5.17;;;3.10;99.90;;;;;;8325573;28;20265;-83
2021/12/18 01:57:04;;;;;;;10.93;4.63;;;3.10;99.90;;;;;;8316906;28;20213;-82
2021/12/18 02:01:05;;;;;;;11.20;5.03;;;3.10;99.90;;;;;;8316987;28;20201;-83
2021/12/18 02:05:07;;;;;;;5.77;3.93;;;3.10;99.90;;;;;;8313372;28;20194;-82
2021/12/18 02:09:09;;;;;;;9.83;6.13;;;3.00;99.90;;;;;;8308767;28;20202;-83
2021/12/18 02:13:24;;;;;;;9.90;5.27;;;3.00;99.90;;;;;;8314170;28;20253;-83
2021/12/18 02:21:46;;;;;;;10.03;5.83;;;3.00;99.90;;;;;;8331726;28;20278;-81
2021/12/18 02:25:47;;;;;;;10.57;6.30;;;3.00;99.90;;;;;;8319217;28;20186;-82
2021/12/18 02:29:48;;;;;;;11.80;5.43;;;3.00;99.90;;;;;;8308892;28;20266;-84
2021/12/18 02:33:49;;;;;;;9.57;5.80;;;3.00;99.90;;;;;;8310591;28;20206;-81
2021/12/18 02:37:50;;;;;;;13.77;6.23;;;3.00;99.90;;;;;;8304874;28;20215;-82
2021/12/18 02:42:24;;;;;;;10.70;6.20;;;3.00;99.90;;;;;;8310682;28;20222;-83
2021/12/18 02:46:20;;;;;;;13.67;6.10;;;2.90;99.90;;;;;;8325394;28;20202;-83
2021/12/18 02:50:20;;;;;;;11.17;6.30;;;2.90;99.90;;;;;;8308320;28;20191;-83
2021/12/18 02:54:21;;;;;;;12.93;6.13;;;2.90;99.90;;;;;;8312175;28;20261;-83
2021/12/18 02:58:23;;;;;;;12.23;6.50;;;2.90;99.90;;;;;;8306062;28;20194;-84
2021/12/18 03:02:25;;;;;;;13.00;6.17;;;2.90;99.90;;;;;;8308948;28;20193;-84
2021/12/18 03:06:42;;;;;;;10.27;4.90;;;2.90;99.90;;;;;;8328955;28;20214;-84
2021/12/18 03:23:40;;;;;;;10.00;3.57;;;2.90;99.90;;;;;;8325547;28;20190;-81
2021/12/18 03:27:41;;;;;;;6.20;3.23;;;2.90;99.90;;;;;;8315937;28;20198;-83
2021/12/18 03:31:42;;;;;;;8.23;3.23;;;2.90;99.90;;;;;;8300134;28;20308;-83
2021/12/18 03:35:44;;;;;;;8.13;4.03;;;2.80;99.90;;;;;;8313549;28;20228;-83
2021/12/18 03:39:45;;;;;;;6.97;3.30;;;2.90;99.90;;;;;;8311058;28;20186;-83
2021/12/18 03:43:46;;;;;;;8.83;3.53;;;2.90;99.90;;;;;;8309768;28;20206;-83
2021/12/18 03:47:48;;;;;;;8.53;4.10;;;2.90;99.90;;;;;;8310507;28;20272;-84
2021/12/18 03:51:48;;;;;;;6.87;3.53;;;2.90;99.90;;;;;;8311750;28;20583;-84
2021/12/18 03:55:49;;;;;;;8.43;3.90;;;2.90;99.90;;;;;;8308351;28;20264;-83
2021/12/18 03:59:50;;;;;;;6.03;3.67;;;3.00;99.90;;;;;;8309562;28;20268;-84
2021/12/18 04:03:51;;;;;;;12.43;4.23;;;3.00;99.90;;;;;;8309286;28;20189;-83
2021/12/18 04:07:52;;;;;;;7.47;4.00;;;3.00;99.90;;;;;;8312175;28;20187;-83
2021/12/18 04:11:53;;;;;;;7.27;4.40;;;3.00;99.90;;;;;;8310141;28;20188;-84
2021/12/18 04:15:54;;;;;;;8.93;5.20;;;3.00;99.90;;;;;;8306537;28;20212;-84
2021/12/18 04:19:54;;;;;;;10.67;4.50;;;3.00;99.90;;;;;;8305380;28;20205;-83
2021/12/18 04:23:55;;;;;;;5.57;3.90;;;3.00;99.90;;;;;;8305109;28;20244;-83
2021/12/18 04:27:56;;;;;;;9.47;4.87;;;3.00;99.90;;;;;;8306781;28;20256;-83
2021/12/18 04:31:57;;;;;;;7.77;4.90;;;3.00;99.90;;;;;;8303394;28;20233;-82
2021/12/18 04:35:58;;;;;;;9.10;5.03;;;3.00;99.90;;;;;;8305436;28;20533;-81
2021/12/18 04:39:59;;;;;;;8.23;4.77;;;3.00;99.90;;;;;;8306530;28;20240;-81
2021/12/18 04:44:00;;;;;;;7.93;3.57;;;3.00;99.90;;;;;;8309531;28;20183;-82
2021/12/18 04:48:01;;;;;;;6.90;4.30;;;3.00;99.90;;;;;;8321795;28;20220;-83
2021/12/18 04:52:03;;;;;;;6.53;4.43;;;3.00;99.90;;;;;;8306357;28;20205;-83
2021/12/18 04:56:04;;;;;;;7.17;3.93;;;3.00;99.90;;;;;;8306818;28;20272;-83
2021/12/18 05:00:08;;;;;;;6.10;4.03;;;3.00;99.90;;;;;;8307899;28;20181;-82
2021/12/18 05:04:11;;;;;;;10.87;4.93;;;3.00;99.90;;;;;;8308073;28;20235;-83
2021/12/18 05:08:12;;;;;;;11.27;4.87;;;3.00;99.90;;;;;;8305601;28;20202;-83
2021/12/18 05:12:13;;;;;;;9.37;3.90;;;3.00;99.90;;;;;;8323938;28;20191;-81
2021/12/18 05:16:14;;;;;;;7.93;4.03;;;3.00;99.90;;;;;;8312233;28;20210;-83
2021/12/18 05:20:15;;;;;;;8.87;4.20;;;3.00;99.90;;;;;;8309112;28;20182;-83
2021/12/18 05:24:17;;;;;;;8.03;4.03;;;3.00;99.90;;;;;;8309498;28;20183;-83
2021/12/18 05:28:17;;;;;;;8.53;3.63;;;3.00;99.90;;;;;;8311721;28;20266;-84
2021/12/18 05:32:18;;;;;;;7.57;4.13;;;3.00;99.90;;;;;;8306333;28;20187;-82
2021/12/18 05:36:33;;;;;;;10.97;6.17;;;3.00;99.90;;;;;;8307854;28;20210;-81
2021/12/18 05:40:37;;;;;;;8.53;4.50;;;3.00;99.90;;;;;;8323865;28;20186;-84
2021/12/18 05:44:38;;;;;;;9.03;4.03;;;3.00;99.90;;;;;;8313943;28;20184;-83
2021/12/18 05:48:39;;;;;;;9.23;4.07;;;3.10;99.90;;;;;;8308769;28;20380;-83
2021/12/18 05:52:40;;;;;;;6.07;4.30;;;3.10;99.90;;;;;;8311072;28;20217;-82
2021/12/18 05:56:42;;;;;;;6.03;3.63;;;3.10;99.90;;;;;;8314464;28;20178;-82
2021/12/18 06:00:43;;;;;;;8.90;4.20;;;3.10;99.90;;;;;;8307295;28;20217;-83
2021/12/18 06:04:44;;;;;;;7.53;4.00;;;3.10;99.90;;;;;;8316256;28;20257;-83
2021/12/18 06:08:45;;;;;;;11.00;4.27;;;3.10;99.90;;;;;;8312332;28;20200;-82
2021/12/18 06:12:46;;;;;;;5.77;3.70;;;3.10;99.90;;;;;;8336189;28;20183;-82
2021/12/18 06:16:46;;;;;;;8.00;4.17;;;3.10;99.90;;;;;;8305000;28;20178;-83
2021/12/18 06:20:47;;;;;;;8.60;4.20;;;3.10;99.90;;;;;;8314038;28;20185;-83
2021/12/18 06:24:48;;;;;;;8.43;4.30;;;3.20;99.90;;;;;;8309299;28;20211;-81
2021/12/18 06:28:50;;;;;;;9.20;4.10;;;3.20;99.90;;;;;;8302595;28;20190;-82
2021/12/18 06:32:51;;;;;;;11.30;4.93;;;3.20;99.90;;;;;;8307980;28;20206;-82
2021/12/18 06:36:52;;;;;;;7.13;4.43;;;3.20;99.90;;;;;;8303624;28;20182;-81
2021/12/18 06:40:53;;;;;;;9.73;4.50;;;3.20;99.90;;;;;;8307779;28;20188;-81
2021/12/18 06:44:53;;;;;;;6.50;3.77;;;3.20;99.90;;;;;;8302802;28;20200;-82
2021/12/18 06:48:54;;;;;;;8.30;4.70;;;3.20;99.90;;;;;;8300885;28;20183;-83
2021/12/18 06:52:55;;;;;;;6.87;4.27;;;3.20;99.90;;;;;;8311558;28;20301;-80
2021/12/18 06:56:56;;;;;;;8.63;4.67;;;3.20;99.90;;;;;;8299590;28;20183;-83
2021/12/18 07:00:57;;;;;;;6.83;4.17;;;3.30;99.90;;;;;;8302688;28;20203;-83
2021/12/18 07:04:57;;;;;;;9.30;5.07;;;3.30;99.90;;;;;;8304699;28;20267;-84
2021/12/18 07:08:59;;;;;;;7.20;4.13;;;3.30;99.90;;;;;;8300587;28;20238;-83
2021/12/18 07:13:00;;;;;;;9.23;4.87;;;3.30;99.90;;;;;;8302835;28;20249;-84
2021/12/18 07:17:01;;;;;;;7.77;4.80;;;3.40;99.90;;;;;;8303891;28;20274;-82
2021/12/18 07:21:02;;;;;;;12.03;4.50;;;3.40;99.90;;;;;;8307687;28;20221;-82
2021/12/18 07:25:04;;;;;;;9.40;5.33;;;3.50;99.90;;;;;;8311249;28;20190;-82
2021/12/18 07:29:05;;;;;;;9.87;5.00;;;3.50;99.90;;;;;;8306025;28;20219;-84
2021/12/18 07:33:10;;;;;;;10.43;5.27;;;3.50;99.90;;;;;;8309134;28;20301;-82
2021/12/18 07:37:11;;;;;;;8.53;4.10;;;3.60;99.90;;;;;;8299707;28;20211;-84
2021/12/18 07:41:12;;;;;;;8.63;4.63;;;3.60;99.90;;;;;;8303938;28;20197;-81
2021/12/18 07:45:13;;;;;;;9.90;4.37;;;3.60;99.90;;;;;;8302074;28;20261;-80
2021/12/18 07:49:14;;;;;;;8.37;4.67;;;3.70;99.90;;;;;;8307276;28;20191;-83
2021/12/18 07:53:16;;;;;;;12.87;6.20;;;3.70;99.90;;;;;;8301509;28;20652;-83
2021/12/18 07:57:17;;;;;;;9.67;4.83;;;3.70;99.90;;;;;;8308662;28;20190;-83
2021/12/18 08:01:18;;;;;;;8.00;4.90;;;3.70;99.90;;;;;;8305526;28;20187;-83
2021/12/18 08:05:19;;;;;;;10.90;5.37;;;3.70;99.90;;;;;;8305370;28;20205;-81
2021/12/18 08:09:20;;;;;;;14.20;5.50;;;3.80;99.90;;;;;;8307065;28;20210;-83
2021/12/18 08:13:21;;;;;;;10.77;5.13;;;3.90;99.90;;;;;;8301547;28;20233;-84
2021/12/18 08:17:23;;;;;;;7.67;4.90;;;3.90;99.90;;;;;;8312768;28;20187;-82
2021/12/18 08:21:24;;;;;;;12.80;5.57;;;4.00;99.90;;;;;;8307690;28;20202;-81
2021/12/18 08:25:27;;;;;;;10.07;4.93;;;4.00;99.90;;;;;;8305001;28;20318;-84
2021/12/18 08:29:28;;;;;;;10.53;5.30;;;4.00;99.90;;;;;;8309355;28;20222;-84
2021/12/18 08:33:29;;;;;;;9.43;5.37;;;4.00;99.90;;;;;;8306732;28;20293;-84
2021/12/18 08:37:30;;;;;;;17.30;5.53;;;4.00;99.90;;;;;;8312626;28;20186;-81
2021/12/18 08:41:33;;;;;;;9.03;4.57;;;4.00;99.90;;;;;;8312114;28;20324;-85
2021/12/18 08:45:35;;;;;;;8.23;5.17;;;4.10;99.90;;;;;;8308196;28;20190;-87
2021/12/18 08:49:37;;;;;;;6.20;4.27;;;4.10;99.90;;;;;;8307272;28;20191;-85
2021/12/18 08:53:38;;;;;;;7.53;4.87;;;4.10;99.90;;;;;;8320350;28;20210;-83
2021/12/18 08:57:39;;;;;;;7.47;4.77;;;4.10;99.90;;;;;;8312138;28;20540;-84
2021/12/18 09:01:41;;;;;;;8.33;5.30;;;4.20;99.90;;;;;;8312752;28;20192;-80
2021/12/18 09:05:42;;;;;;;9.37;5.10;;;4.10;99.90;;;;;;8307343;28;20197;-85
2021/12/18 09:09:43;;;;;;;9.47;5.80;;;4.20;99.90;;;;;;8309376;28;20203;-81
2021/12/18 09:13:44;;;;;;;10.90;6.40;;;4.10;99.90;;;;;;8312612;28;20213;-81
2021/12/18 09:17:45;;;;;;;6.97;4.77;;;4.10;99.90;;;;;;8310476;28;20178;-84
2021/12/18 09:21:46;;;;;;;9.87;6.20;;;4.20;99.90;;;;;;8312795;28;20233;-80
2021/12/18 09:25:48;;;;;;;10.20;6.00;;;4.20;99.90;;;;;;8310135;28;20218;-83
2021/12/18 09:29:49;;;;;;;7.43;5.23;;;4.20;99.90;;;;;;8312779;28;20190;-81
2021/12/18 09:33:50;;;;;;;9.50;6.70;;;4.20;99.90;;;;;;8307480;28;20220;-80
2021/12/18 09:37:53;;;;;;;9.53;6.60;;;4.20;99.90;;;;;;8309442;28;20320;-86
2021/12/18 09:41:54;;;;;;;9.53;6.50;;;4.20;99.90;;;;;;8313665;28;20183;-85
2021/12/18 09:46:08;;;;;;;9.00;5.50;;;4.30;99.90;;;;;;8308904;28;20186;-86
2021/12/18 09:50:12;;;;;;;5.40;4.40;;;4.40;99.90;;;;;;8326416;28;20253;-82
2021/12/18 09:54:13;;;;;;;8.93;4.60;;;4.50;99.90;;;;;;8316883;28;20222;-85
2021/12/18 09:58:14;;;;;;;5.67;4.33;;;4.60;99.90;;;;;;8314195;28;20175;-82
2021/12/18 10:02:15;;;;;;;4.33;3.50;;;4.60;99.90;;;;;;8314867;28;20210;-81
2021/12/18 10:06:40;;;;;;;4.30;3.57;;;4.40;99.90;;;;;;8310695;28;20182;-82
2021/12/18 10:11:07;;;;;;;4.70;3.47;;;4.40;99.90;;;;;;8301497;28;20210;-82
2021/12/18 10:15:16;;;;;;;6.00;4.37;;;4.40;99.90;;;;;;8318925;28;20210;-82
2021/12/18 10:19:36;;;;;;;5.47;4.23;;;4.30;99.90;;;;;;8305388;28;20179;-80
2021/12/18 10:23:37;;;;;;;5.40;4.47;;;4.30;99.90;;;;;;8309123;28;20190;-83
2021/12/18 10:27:41;;;;;;;6.60;4.20;;;4.40;99.90;;;;;;8308752;28;20197;-82
2021/12/18 10:31:45;;;;;;;4.77;4.03;;;4.30;99.90;;;;;;8309791;28;20269;-84
2021/12/18 10:35:55;;;;;;;5.43;4.40;;;4.20;99.90;;;;;;8309615;28;20380;-82
2021/12/18 10:40:09;;;;;;;6.50;4.80;;;4.20;99.90;;;;;;8323230;28;20186;-85
2021/12/18 10:44:12;;;;;;;6.37;4.47;;;4.30;99.90;;;;;;8304407;28;20194;-81
2021/12/18 10:48:17;;;;;;;6.13;4.50;;;4.30;99.90;;;;;;8306272;28;20194;-87
2021/12/18 10:52:36;;;;;;;6.73;5.10;;;4.30;99.90;;;;;;8316890;28;20182;-83
2021/12/18 10:56:44;;;;;;;5.40;4.37;;;4.40;99.90;;;;;;8306084;28;20242;-87
2021/12/18 11:00:47;;;;;;;4.77;4.00;;;4.50;99.90;;;;;;8316475;28;20182;-89
2021/12/18 11:04:49;;;;;;;5.70;4.57;;;4.50;99.90;;;;;;8309132;28;20201;-86
2021/12/18 11:08:57;;;;;;;4.67;4.17;;;4.60;99.90;;;;;;8310265;28;20218;-86
2021/12/18 11:17:18;;;;;;;6.53;4.27;;;4.70;99.90;;;;;;8327184;28;20186;-88
2021/12/18 11:21:19;;;;;;;7.17;3.90;;;4.70;99.90;;;;;;8321437;28;20187;-84
2021/12/18 11:25:22;;;;;;;13.40;6.73;;;4.80;99.90;;;;;;8305003;28;20189;-85
2021/12/18 11:29:46;;;;;;;6.00;4.37;;;4.90;99.90;;;;;;8307483;28;20221;-85
2021/12/18 11:33:47;;;;;;;3.90;3.10;;;4.90;99.90;;;;;;8317034;28;20301;-86
2021/12/18 11:37:59;;;;;;;3.17;2.83;;;5.00;99.90;;;;;;8312218;28;20186;-86
2021/12/18 11:42:00;;;;;;;3.23;2.67;;;5.00;99.90;;;;;;8306135;28;20186;-88
2021/12/18 11:46:22;;;;;;;3.37;2.60;;;5.00;99.90;;;;;;8307823;28;20191;-87
2021/12/18 11:50:34;;;;;;;3.00;2.67;;;5.00;99.90;;;;;;8296381;28;20247;-85
2021/12/18 11:54:59;;;;;;;3.63;2.80;;;5.00;99.90;;;;;;8310528;28;20213;-87
2021/12/18 11:58:59;;;;;;;3.37;2.97;;;5.10;99.90;;;;;;8307760;28;20196;-88
2021/12/18 12:03:09;;;;;;;7.57;5.03;;;5.10;99.90;;;;;;8307143;28;20191;-84
2021/12/18 12:07:21;;;;;;;4.63;2.77;;;5.10;99.90;;;;;;8300443;28;20186;-88
2021/12/18 12:11:27;;;;;;;4.33;3.03;;;5.10;99.90;;;;;;8320522;28;20213;-86
2021/12/18 12:15:29;;;;;;;5.17;2.90;;;5.20;99.90;;;;;;8319163;28;20237;-83
2021/12/18 12:19:36;;;;;;;4.30;2.90;;;5.10;99.90;;;;;;8300356;28;20193;-86
2021/12/18 12:24:00;;;;;;;3.67;2.70;;;5.20;99.90;;;;;;8298774;28;20186;-85
2021/12/18 12:28:08;;;;;;;5.00;3.77;;;5.20;99.90;;;;;;8300565;28;20221;-83
2021/12/18 12:32:12;;;;;;;12.27;8.07;;;5.30;99.90;;;;;;8308356;28;20530;-88
2021/12/18 12:36:15;;;;;;;3.53;2.63;;;5.20;99.90;;;;;;8307112;28;20218;-83
2021/12/18 12:40:32;;;;;;;6.83;4.17;;;5.20;99.90;;;;;;8306675;28;20186;-84
2021/12/18 12:44:37;;;;;;;5.60;3.33;;;5.10;99.90;;;;;;8302018;28;20222;-84
2021/12/18 12:49:02;;;;;;;6.27;4.17;;;5.20;99.90;;;;;;8308732;28;20186;-84
2021/12/18 12:53:11;;;;;;;8.10;5.43;;;5.20;99.90;;;;;;8305695;28;20210;-83
2021/12/18 12:57:24;;;;;;;5.27;4.20;;;5.30;99.90;;;;;;8321060;28;20183;-83
2021/12/18 13:01:27;;;;;;;6.10;3.73;;;5.30;99.90;;;;;;8305022;28;20183;-85
2021/12/18 13:05:31;;;;;;;6.00;3.90;;;5.30;99.90;;;;;;8310588;28;20229;-84
2021/12/18 13:09:34;;;;;;;6.40;4.20;;;5.20;99.90;;;;;;8306794;28;20235;-85
2021/12/18 13:13:36;;;;;;;7.60;4.93;;;5.20;99.90;;;;;;8318185;28;20217;-87
2021/12/18 13:17:37;;;;;;;6.97;4.47;;;5.20;99.90;;;;;;8303327;28;20205;-86
2021/12/18 13:21:40;;;;;;;7.17;3.83;;;5.20;99.90;;;;;;8299276;28;20182;-87
2021/12/18 13:25:49;;;;;;;4.40;3.50;;;5.20;99.90;;;;;;8298785;28;20186;-85
2021/12/18 13:30:11;;;;;;;7.17;4.60;;;5.20;99.90;;;;;;8298756;28;20225;-86
2021/12/18 13:34:17;;;;;;;5.87;3.90;;;5.20;99.90;;;;;;8297937;28;20210;-83
2021/12/18 13:38:18;;;;;;;6.30;4.50;;;5.20;99.90;;;;;;8309783;28;20215;-83
2021/12/18 13:42:22;;;;;;;6.20;4.27;;;5.20;99.90;;;;;;8303949;28;20198;-85
2021/12/18 13:46:29;;;;;;;8.87;5.70;;;5.10;99.90;;;;;;8302683;28;20198;-83
2021/12/18 13:50:31;;;;;;;6.70;4.13;;;5.10;99.90;;;;;;8314640;28;20218;-83
2021/12/18 13:54:36;;;;;;;7.93;4.87;;;5.10;99.90;;;;;;8323870;28;20210;-85
2021/12/18 13:58:37;;;;;;;7.60;4.67;;;5.10;99.90;;;;;;8309826;28;20233;-84
2021/12/18 14:02:39;;;;;;;5.33;4.27;;;5.20;99.90;;;;;;8303116;28;20201;-84
2021/12/18 14:06:42;;;;;;;6.80;4.03;;;5.20;99.90;;;;;;8308092;28;20197;-84
2021/12/18 14:10:43;;;;;;;7.77;4.50;;;5.20;99.90;;;;;;8323689;28;20206;-85
2021/12/18 14:14:52;;;;;;;5.80;4.47;;;5.10;99.90;;;;;;8307123;28;20257;-87
2021/12/18 14:19:02;;;;;;;5.30;4.13;;;5.10;99.90;;;;;;8292069;28;20187;-87
2021/12/18 14:23:10;;;;;;;6.87;3.80;;;5.10;99.90;;;;;;8306560;28;20201;-83
2021/12/18 14:27:12;;;;;;;7.80;4.60;;;5.10;99.90;;;;;;8324882;28;20191;-83
2021/12/18 14:31:36;;;;;;;6.23;4.47;;;5.10;99.90;;;;;;8306636;28;20186;-85
2021/12/18 14:35:53;;;;;;;6.93;4.87;;;5.10;99.90;;;;;;8308886;28;20245;-85
2021/12/18 14:39:57;;;;;;;6.20;4.63;;;5.10;99.90;;;;;;8311120;28;20241;-85
2021/12/18 14:44:05;;;;;;;6.57;4.33;;;5.20;99.90;;;;;;8314545;28;20273;-82
2021/12/18 14:48:07;;;;;;;5.50;4.27;;;5.20;99.90;;;;;;8312325;28;20187;-83
2021/12/18 14:52:08;;;;;;;6.43;4.80;;;5.20;99.90;;;;;;8322508;28;20199;-84
2021/12/18 14:56:15;;;;;;;7.03;4.50;;;5.20;99.90;;;;;;8312079;28;20306;-82
2021/12/18 15:00:32;;;;;;;6.57;4.63;;;5.20;99.90;;;;;;8312238;28;20182;-84
2021/12/18 15:04:33;;;;;;;17.73;11.00;;;5.20;99.90;;;;;;8312175;28;20203;-84
2021/12/18 15:08:47;;;;;;;7.63;4.97;;;5.20;99.90;;;;;;8308179;28;20240;-85
2021/12/18 15:12:48;;;;;;;6.07;3.83;;;5.20;99.90;;;;;;8327594;28;20241;-85
2021/12/18 15:16:57;;;;;;;5.90;4.43;;;5.20;99.90;;;;;;8302594;28;20217;-84
2021/12/18 15:20:58;;;;;;;5.90;3.90;;;5.20;99.90;;;;;;8306453;28;20183;-83
2021/12/18 15:24:59;;;;;;;9.37;4.43;;;5.20;99.90;;;;;;8326365;28;20289;-83
2021/12/18 15:29:01;;;;;;;6.03;4.33;;;5.20;99.90;;;;;;8306195;28;20202;-84
2021/12/18 15:33:01;;;;;;;6.90;4.70;;;5.20;99.90;;;;;;8307656;28;20186;-83
2021/12/18 15:37:12;;;;;;;5.10;4.27;;;5.20;99.90;;;;;;8303565;28;20256;-81
2021/12/18 15:41:13;;;;;;;6.20;4.60;;;5.20;99.90;;;;;;8300865;28;20202;-83
2021/12/18 15:45:14;;;;;;;6.87;5.00;;;5.20;99.90;;;;;;8308243;28;20198;-83
2021/12/18 15:49:15;;;;;;;5.03;3.23;;;5.20;99.90;;;;;;8308428;28;20236;-83
2021/12/18 15:53:16;;;;;;;5.50;3.47;;;5.20;99.90;;;;;;8309356;28;20211;-81
2021/12/18 15:57:17;;;;;;;4.27;3.00;;;5.20;99.90;;;;;;8310026;28;20186;-83
2021/12/18 16:01:19;;;;;;;3.77;2.50;;;5.20;99.90;;;;;;8304773;28;20509;-81
2021/12/18 16:05:24;;;;;;;3.23;2.50;;;5.20;99.90;;;;;;8307140;28;20241;-83
2021/12/18 16:09:25;;;;;;;3.73;2.53;;;5.20;99.90;;;;;;8306834;28;20209;-83
2021/12/18 16:13:26;;;;;;;3.67;2.77;;;5.10;99.90;;;;;;8307323;28;20214;-81
2021/12/18 16:17:27;;;;;;;4.30;3.53;;;5.20;99.90;;;;;;8307835;28;20249;-83
2021/12/18 16:21:27;;;;;;;3.47;2.57;;;5.10;99.90;;;;;;8322915;28;20186;-84
2021/12/18 16:25:29;;;;;;;2.90;2.13;;;5.10;99.90;;;;;;8304311;28;20304;-83
2021/12/18 16:29:33;;;;;;;3.60;2.70;;;5.10;99.90;;;;;;8322020;28;20178;-81
2021/12/18 16:33:36;;;;;;;2.60;2.30;;;5.20;99.90;;;;;;8299523;28;20333;-83
2021/12/18 16:37:41;;;;;;;7.50;4.00;;;5.20;99.90;;;;;;8300423;28;20189;-81
2021/12/18 16:41:42;;;;;;;10.53;6.77;;;5.20;99.90;;;;;;8298934;28;20577;-82
2021/12/18 16:45:44;;;;;;;3.70;2.60;;;5.20;99.90;;;;;;8308234;28;20191;-82
2021/12/18 16:49:52;;;;;;;2.67;2.40;;;5.20;99.90;;;;;;8329411;28;20263;-83
2021/12/18 16:53:53;;;;;;;3.23;2.63;;;5.20;99.90;;;;;;8301885;28;20211;-81
2021/12/18 16:57:55;;;;;;;2.93;2.30;;;5.20;99.90;;;;;;8303885;28;20186;-81
2021/12/18 17:01:56;;;;;;;3.93;2.60;;;5.20;99.90;;;;;;8320413;28;20273;-82
2021/12/18 17:05:57;;;;;;;4.23;3.10;;;5.30;99.90;;;;;;8302727;28;20245;-81
2021/12/18 17:10:00;;;;;;;2.70;2.30;;;5.30;99.90;;;;;;8297464;28;20233;-82
2021/12/18 17:14:01;;;;;;;3.37;2.63;;;5.30;99.90;;;;;;8306563;28;20214;-80
2021/12/18 17:18:03;;;;;;;2.57;2.37;;;5.30;99.90;;;;;;8310512;28;20187;-81
2021/12/18 17:22:05;;;;;;;2.53;2.30;;;5.30;99.90;;;;;;8313184;28;20241;-83
2021/12/18 17:26:06;;;;;;;2.60;2.30;;;5.40;99.90;;;;;;8324254;28;20208;-82
2021/12/18 17:30:10;;;;;;;4.07;2.67;;;5.30;99.90;;;;;;8313035;28;20707;-82
2021/12/18 17:34:11;;;;;;;2.83;2.17;;;5.30;99.90;;;;;;8323124;28;20210;-83
2021/12/18 17:38:12;;;;;;;3.27;2.13;;;5.30;99.90;;;;;;8338681;28;20194;-82
2021/12/18 17:42:13;;;;;;;3.00;2.40;;;5.30;99.90;;;;;;8318667;28;20191;-83
2021/12/18 17:46:14;;;;;;;4.13;2.37;;;5.30;99.90;;;;;;8313717;28;20246;-83
2021/12/18 17:50:15;;;;;;;4.77;3.43;;;5.40;99.90;;;;;;8308334;28;20264;-83
2021/12/18 17:54:16;;;;;;;3.13;2.27;;;5.40;99.90;;;;;;8307508;28;20225;-81
2021/12/18 17:58:17;;;;;;;3.77;2.50;;;5.40;99.90;;;;;;8326607;28;20179;-83
2021/12/18 18:02:19;;;;;;;3.43;2.87;;;5.30;99.90;;;;;;8328568;28;20566;-83
2021/12/18 18:06:19;;;;;;;3.43;2.53;;;5.30;99.90;;;;;;8306334;28;20187;-83
2021/12/18 18:10:25;;;;;;;3.23;2.87;;;5.30;99.90;;;;;;8310785;28;20202;-82
2021/12/18 18:14:26;;;;;;;4.03;2.43;;;5.30;99.90;;;;;;8315167;28;20312;-82
2021/12/18 18:18:27;;;;;;;2.77;2.17;;;5.30;99.90;;;;;;8329929;28;20194;-83
2021/12/18 18:22:28;;;;;;;4.27;2.77;;;5.30;99.90;;;;;;8304065;28;20236;-81
2021/12/18 18:26:29;;;;;;;2.77;2.43;;;5.30;99.90;;;;;;8301568;28;20184;-81
2021/12/18 18:30:30;;;;;;;3.03;2.73;;;5.30;99.90;;;;;;8312737;28;20191;-83
2021/12/18 18:34:31;;;;;;;3.43;2.67;;;5.30;99.90;;;;;;8327149;28;20249;-83
2021/12/18 18:38:32;;;;;;;2.50;2.20;;;5.30;99.90;;;;;;8306544;28;20197;-81
2021/12/18 18:42:33;;;;;;;5.03;3.47;;;5.30;99.90;;;;;;8315450;28;20187;-83
2021/12/18 18:46:38;;;;;;;3.97;3.00;;;5.30;99.90;;;;;;8302862;28;20249;-83
2021/12/18 18:50:40;;;;;;;3.30;2.97;;;5.30;99.90;;;;;;8322205;28;20282;-81
2021/12/18 18:54:43;;;;;;;3.27;2.60;;;5.30;99.90;;;;;;8305782;28;20203;-83
2021/12/18 18:58:44;;;;;;;3.73;3.33;;;5.30;99.90;;;;;;8308241;28;20193;-83
2021/12/18 19:02:46;;;;;;;3.87;2.83;;;5.30;99.90;;;;;;8310133;28;20178;-82
2021/12/18 19:06:46;;;;;;;2.97;2.53;;;5.30;99.90;;;;;;8322017;28;20228;-83
2021/12/18 19:10:48;;;;;;;3.30;2.60;;;5.30;99.90;;;;;;8304572;28;20201;-83
2021/12/18 19:14:51;;;;;;;2.87;2.43;;;5.40;99.90;;;;;;8313868;28;20217;-83
2021/12/18 19:18:59;;;;;;;5.73;2.33;;;5.40;99.90;;;;;;8311695;28;20183;-82
2021/12/18 19:23:00;;;;;;;2.17;1.97;;;5.40;99.90;;;;;;8314480;28;20242;-84
2021/12/18 19:27:01;;;;;;;3.20;1.80;;;5.40;99.90;;;;;;8308856;28;20202;-82
2021/12/18 19:31:07;;;;;;;1.73;1.53;;;5.40;99.90;;;;;;8313327;28;20273;-82
2021/12/18 19:35:08;;;;;;;2.73;1.70;;;5.40;99.90;;;;;;8310399;28;20213;-85
2021/12/18 19:39:11;;;;;;;2.27;1.60;;;5.40;99.90;;;;;;8307878;28;20247;-85
2021/12/18 19:43:13;;;;;;;1.60;1.40;;;5.40;99.90;;;;;;8311945;28;20187;-84
2021/12/18 19:47:15;;;;;;;1.83;1.30;;;5.40;99.90;;;;;;8314089;28;20182;-84
2021/12/18 19:51:19;;;;;;;1.73;1.50;;;5.40;99.90;;;;;;8310525;28;20187;-84
2021/12/18 19:55:20;;;;;;;1.67;1.30;;;5.40;99.90;;;;;;8315986;28;20210;-84
2021/12/18 19:59:23;;;;;;;1.60;1.40;;;5.40;99.90;;;;;;8307984;28;20197;-84
2021/12/18 20:07:32;;;;;;;2.53;1.60;;;5.40;99.90;;;;;;8322662;28;20663;-84
2021/12/18 20:11:32;;;;;;;1.20;0.80;;;5.40;99.90;;;;;;8312664;28;20186;-83
2021/12/18 20:15:34;;;;;;;2.20;1.47;;;5.40;99.90;;;;;;8315691;28;20220;-85
2021/12/18 20:19:35;;;;;;;1.70;1.30;;;5.40;99.90;;;;;;8313494;28;20186;-84
2021/12/18 20:23:37;;;;;;;1.27;1.17;;;5.40;99.90;;;;;;8302105;28;20182;-85
2021/12/18 20:27:39;;;;;;;1.77;1.40;;;5.40;99.90;;;;;;8301104;28;20277;-85
2021/12/18 20:31:40;;;;;;;5.73;3.13;;;5.40;99.90;;;;;;8307379;28;20232;-82
2021/12/18 20:35:43;;;;;;;1.90;1.30;;;5.40;99.90;;;;;;8308832;28;20211;-84
2021/12/18 20:39:44;;;;;;;1.63;1.33;;;5.40;99.90;;;;;;8321013;28;20190;-84
2021/12/18 20:43:47;;;;;;;1.40;1.30;;;5.40;99.90;;;;;;8332209;28;20210;-84
2021/12/18 20:47:49;;;;;;;1.97;1.37;;;5.50;99.90;;;;;;8331892;28;20186;-82
2021/12/18 20:51:50;;;;;;;3.67;3.07;;;5.40;99.90;;;;;;8323439;28;20276;-84
2021/12/18 20:55:53;;;;;;;1.43;1.30;;;5.50;99.90;;;;;;8319178;28;20211;-83
2021/12/18 20:59:54;;;;;;;2.30;1.60;;;5.50;99.90;;;;;;8315038;28;20193;-82
2021/12/18 21:03:56;;;;;;;1.53;1.27;;;5.50;99.90;;;;;;8314766;28;20186;-83
2021/12/18 21:08:00;;;;;;;1.20;0.73;;;5.50;99.90;;;;;;8313857;28;20198;-84
2021/12/18 21:12:02;;;;;;;1.50;1.10;;;5.60;99.90;;;;;;8306668;28;20709;-84
2021/12/18 21:16:06;;;;;;;1.37;1.27;;;5.60;99.90;;;;;;8309354;28;20210;-84
2021/12/18 21:20:07;;;;;;;1.50;1.10;;;5.60;99.90;;;;;;8318419;28;20187;-84
2021/12/18 21:24:10;;;;;;;1.83;1.10;;;5.60;99.90;;;;;;8299218;28;20201;-81
2021/12/18 21:28:11;;;;;;;1.40;1.30;;;5.50;99.90;;;;;;8302698;28;20195;-83
2021/12/18 21:32:12;;;;;;;1.40;1.10;;;5.50;99.90;;;;;;8298117;28;20194;-82
2021/12/18 21:40:35;;;;;;;1.70;1.30;;;5.60;99.90;;;;;;8311325;28;20287;-84
2021/12/18 21:44:36;;;;;;;1.50;1.20;;;5.60;99.90;;;;;;8317725;28;20182;-84
2021/12/18 21:48:39;;;;;;;2.27;1.00;;;5.60;99.90;;;;;;8302690;28;20226;-85
2021/12/18 21:52:40;;;;;;;2.30;1.93;;;5.60;99.90;;;;;;8298920;28;20288;-85
2021/12/18 21:56:42;;;;;;;1.43;1.23;;;5.60;99.90;;;;;;8310681;28;20213;-84
2021/12/18 22:00:44;;;;;;;1.57;1.20;;;5.60;99.90;;;;;;8324437;28;20240;-84
2021/12/18 22:04:47;;;;;;;1.50;1.27;;;5.60;99.90;;;;;;8310163;28;20190;-83
2021/12/18 22:08:49;;;;;;;1.53;1.43;;;5.70;99.90;;;;;;8251899;28;1554823;-84
2021/12/18 22:12:50;;;;;;;1.97;1.50;;;5.70;99.90;;;;;;8310438;28;20194;-84